createdAt,value
2023-03-26T00:00:48.822Z,9.457353
2023-03-26T00:01:48.837Z,9.457326
2023-03-26T00:02:48.797Z,9.457371
2023-03-26T00:03:48.772Z,9.457235
2023-03-26T00:04:48.749Z,9.457345
2023-03-26T00:05:48.788Z,9.457232
2023-03-26T00:06:48.764Z,9.457323
2023-03-26T00:07:48.742Z,9.457281
2023-03-26T00:08:48.717Z,9.457231
2023-03-26T00:09:48.712Z,9.457135
2023-03-26T00:10:48.719Z,9.457265
2023-03-26T00:11:48.683Z,9.457218
2023-03-26T00:12:48.681Z,9.457277
2023-03-26T00:13:48.665Z,9.457270
2023-03-26T00:14:48.649Z,9.457234
2023-03-26T00:15:48.657Z,9.457294
2023-03-26T00:16:48.677Z,9.457327
2023-03-26T00:17:48.657Z,9.457306
2023-03-26T00:18:48.644Z,9.457253
2023-03-26T00:19:48.605Z,9.457180
2023-03-26T00:20:48.631Z,9.457278
2023-03-26T00:21:48.588Z,9.457253
2023-03-26T00:22:48.556Z,9.457189
2023-03-26T00:23:48.575Z,9.457382
2023-03-26T00:24:48.547Z,9.457292
2023-03-26T00:25:49.541Z,9.457243
2023-03-26T00:26:48.589Z,9.457266
2023-03-26T00:27:48.515Z,9.457278
2023-03-26T00:28:48.514Z,9.457257
2023-03-26T00:29:48.510Z,9.457188
2023-03-26T00:30:48.544Z,9.457230
2023-03-26T00:31:48.475Z,9.457273
2023-03-26T00:32:53.496Z,9.457160
2023-03-26T00:33:49.445Z,9.457238
2023-03-26T00:34:48.436Z,9.457116
2023-03-26T00:35:48.458Z,9.457056
2023-03-26T00:36:48.429Z,9.457236
2023-03-26T00:37:48.410Z,9.457202
2023-03-26T00:38:48.405Z,9.457165
2023-03-26T00:39:48.383Z,9.457360
2023-03-26T00:40:48.404Z,9.457301
2023-03-26T00:41:48.381Z,9.457289
2023-03-26T00:42:48.371Z,9.457459
2023-03-26T00:43:48.356Z,9.457317
2023-03-26T00:44:48.339Z,9.457284
2023-03-26T00:45:48.385Z,9.457312
2023-03-26T00:46:48.322Z,9.457164
2023-03-26T00:47:48.343Z,9.457314
2023-03-26T00:48:48.314Z,9.457308
2023-03-26T00:49:48.317Z,9.457240
2023-03-26T00:50:48.299Z,9.457254
2023-03-26T00:51:48.274Z,9.457259
2023-03-26T00:52:48.259Z,9.457267
2023-03-26T00:53:48.253Z,9.457187
2023-03-26T00:54:48.252Z,9.457087
2023-03-26T00:55:48.240Z,9.457113
2023-03-26T00:56:48.348Z,9.457090
2023-03-26T00:57:48.206Z,9.457106
2023-03-26T00:58:48.217Z,9.456983
2023-03-26T00:59:48.183Z,9.457034
2023-03-26T01:00:48.209Z,9.457124
2023-03-26T01:01:48.195Z,9.457191
2023-03-26T01:02:48.227Z,9.457258
2023-03-26T01:04:04.801Z,9.457002
2023-03-26T01:04:50.147Z,9.457015
2023-03-26T01:05:48.121Z,9.456999
2023-03-26T01:06:48.142Z,9.457047
2023-03-26T01:07:48.101Z,9.457112
2023-03-26T01:08:48.128Z,9.457099
2023-03-26T01:09:48.076Z,9.457171
2023-03-26T01:10:48.060Z,9.457361
2023-03-26T01:11:48.097Z,9.457386
2023-03-26T01:12:48.058Z,9.457278
2023-03-26T01:13:48.033Z,9.457184
2023-03-26T01:14:48.625Z,9.457313
2023-03-26T01:15:48.076Z,9.457314
2023-03-26T01:16:48.020Z,9.457353
2023-03-26T01:17:48.011Z,9.457259
2023-03-26T01:18:47.981Z,9.457035
2023-03-26T01:19:47.978Z,9.457122
2023-03-26T01:20:47.956Z,9.457199
2023-03-26T01:21:48.004Z,9.457175
2023-03-26T01:22:47.949Z,9.457305
2023-03-26T01:23:47.957Z,9.457397
2023-03-26T01:24:47.929Z,9.457341
2023-03-26T01:25:47.921Z,9.457160
2023-03-26T01:26:47.939Z,9.457181
2023-03-26T01:27:47.900Z,9.457116
2023-03-26T01:28:47.892Z,9.457186
2023-03-26T01:29:47.861Z,9.457250
2023-03-26T01:30:47.850Z,9.457283
2023-03-26T01:31:47.875Z,9.457259
2023-03-26T01:32:47.919Z,9.457347
2023-03-26T01:33:47.838Z,9.457292
2023-03-26T01:34:47.811Z,9.457185
2023-03-26T01:35:47.827Z,9.457157
2023-03-26T01:36:47.830Z,9.457250
2023-03-26T01:37:47.784Z,9.457330
2023-03-26T01:38:47.770Z,9.457252
2023-03-26T01:39:47.744Z,9.457117
2023-03-26T01:40:47.739Z,9.457112
2023-03-26T01:41:47.779Z,9.457238
2023-03-26T01:42:47.719Z,9.457225
2023-03-26T01:43:47.707Z,9.457266
2023-03-26T01:44:47.694Z,9.457235
2023-03-26T01:45:47.703Z,9.457179
2023-03-26T01:46:47.738Z,9.457258
2023-03-26T01:47:47.726Z,9.457276
2023-03-26T01:48:47.649Z,9.457243
2023-03-26T01:49:47.660Z,9.457327
2023-03-26T01:50:47.629Z,9.457170
2023-03-26T01:51:47.678Z,9.457164
2023-03-26T01:52:47.608Z,9.457264
2023-03-26T01:53:47.607Z,9.457264
2023-03-26T01:54:47.597Z,9.457367
2023-03-26T01:55:47.583Z,9.457240
2023-03-26T01:56:47.623Z,9.457230
2023-03-26T01:57:47.563Z,9.457228
2023-03-26T01:58:47.573Z,9.457277
2023-03-26T01:59:47.549Z,9.457336
2023-03-26T02:00:47.542Z,9.457217
2023-03-26T02:01:47.594Z,9.457377
2023-03-26T02:02:47.602Z,9.457299
2023-03-26T02:03:47.536Z,9.457303
2023-03-26T02:04:47.485Z,9.457266
2023-03-26T02:05:47.490Z,9.457318
2023-03-26T02:06:47.515Z,9.457274
2023-03-26T02:07:47.465Z,9.457243
2023-03-26T02:08:47.464Z,9.457281
2023-03-26T02:09:47.452Z,9.457210
2023-03-26T02:10:47.425Z,9.457224
2023-03-26T02:11:47.447Z,9.457287
2023-03-26T02:12:47.412Z,9.457278
2023-03-26T02:13:47.401Z,9.457276
2023-03-26T02:14:47.420Z,9.457223
2023-03-26T02:15:47.454Z,9.457193
2023-03-26T02:16:47.394Z,9.457265
2023-03-26T02:17:47.356Z,9.457227
2023-03-26T02:18:47.373Z,9.457272
2023-03-26T02:19:47.324Z,9.457334
2023-03-26T02:20:47.328Z,9.457424
2023-03-26T02:21:47.333Z,9.457362
2023-03-26T02:22:47.296Z,9.457326
2023-03-26T02:23:47.340Z,9.457331
2023-03-26T02:24:47.274Z,9.457295
2023-03-26T02:25:47.267Z,9.457292
2023-03-26T02:26:47.293Z,9.457206
2023-03-26T02:27:47.233Z,9.457340
2023-03-26T02:28:47.235Z,9.457335
2023-03-26T02:29:47.215Z,9.457319
2023-03-26T02:30:47.209Z,9.457196
2023-03-26T02:31:47.244Z,9.457296
2023-03-26T02:32:47.222Z,9.457314
2023-03-26T02:33:47.181Z,9.457277
2023-03-26T02:34:47.188Z,9.457286
2023-03-26T02:35:47.244Z,9.457181
2023-03-26T02:36:47.213Z,9.457095
2023-03-26T02:37:47.172Z,9.457296
2023-03-26T02:38:47.130Z,9.457480
2023-03-26T02:39:47.102Z,9.457377
2023-03-26T02:40:47.095Z,9.457232
2023-03-26T02:41:47.089Z,9.457316
2023-03-26T02:42:47.097Z,9.457430
2023-03-26T02:43:47.063Z,9.457229
2023-03-26T02:44:47.079Z,9.457229
2023-03-26T02:45:47.099Z,9.457232
2023-03-26T02:46:47.043Z,9.457421
2023-03-26T02:47:47.041Z,9.457312
2023-03-26T02:48:47.027Z,9.457186
2023-03-26T02:49:47.053Z,9.457182
2023-03-26T02:50:46.989Z,9.457198
2023-03-26T02:51:46.989Z,9.457085
2023-03-26T02:52:46.997Z,9.457186
2023-03-26T02:53:46.958Z,9.457169
2023-03-26T02:54:46.950Z,9.457193
2023-03-26T02:55:46.932Z,9.457192
2023-03-26T02:56:46.937Z,9.457201
2023-03-26T02:57:46.984Z,9.457253
2023-03-26T02:58:46.944Z,9.457270
2023-03-26T02:59:46.916Z,9.457215
2023-03-26T03:00:46.952Z,9.457180
2023-03-26T03:01:46.892Z,9.457199
2023-03-26T03:02:46.950Z,9.457261
2023-03-26T03:03:46.855Z,9.457255
2023-03-26T03:04:46.836Z,9.457222
2023-03-26T03:05:46.831Z,9.457226
2023-03-26T03:06:46.821Z,9.457219
2023-03-26T03:07:46.855Z,9.457165
2023-03-26T03:08:46.815Z,9.457183
2023-03-26T03:09:46.785Z,9.457220
2023-03-26T03:10:46.771Z,9.457257
2023-03-26T03:11:46.763Z,9.457201
2023-03-26T03:12:46.786Z,9.457280
2023-03-26T03:13:47.002Z,9.457248
2023-03-26T03:14:46.732Z,9.457158
2023-03-26T03:15:46.728Z,9.457159
2023-03-26T03:16:46.729Z,9.457266
2023-03-26T03:17:46.750Z,9.457177
2023-03-26T03:18:46.693Z,9.457268
2023-03-26T03:19:46.697Z,9.457174
2023-03-26T03:20:46.698Z,9.457233
2023-03-26T03:21:47.654Z,9.457255
2023-03-26T03:22:46.684Z,9.457330
2023-03-26T03:23:46.639Z,9.457284
2023-03-26T03:24:46.631Z,9.457219
2023-03-26T03:25:46.629Z,9.457314
2023-03-26T03:26:46.604Z,9.457299
2023-03-26T03:27:46.602Z,9.457173
2023-03-26T03:28:46.587Z,9.457098
2023-03-26T03:29:46.589Z,9.457138
2023-03-26T03:30:46.615Z,9.457423
2023-03-26T03:31:46.554Z,9.457445
2023-03-26T03:32:46.603Z,9.457209
2023-03-26T03:33:46.605Z,9.457090
2023-03-26T03:34:46.517Z,9.457088
2023-03-26T03:35:46.522Z,9.456991
2023-03-26T03:36:46.503Z,9.457225
2023-03-26T03:37:46.517Z,9.457261
2023-03-26T03:38:46.479Z,9.457027
2023-03-26T03:39:46.461Z,9.457108
2023-03-26T03:40:46.449Z,9.457244
2023-03-26T03:41:46.437Z,9.457210
2023-03-26T03:42:46.468Z,9.457229
2023-03-26T03:43:46.414Z,9.457252
2023-03-26T03:44:46.414Z,9.457176
2023-03-26T03:45:46.436Z,9.457272
2023-03-26T03:46:46.405Z,9.457200
2023-03-26T03:47:46.471Z,9.457149
2023-03-26T03:48:46.371Z,9.457201
2023-03-26T03:49:46.358Z,9.457273
2023-03-26T03:50:46.347Z,9.457392
2023-03-26T03:51:46.356Z,9.457157
2023-03-26T03:52:46.336Z,9.457196
2023-03-26T03:53:46.306Z,9.457145
2023-03-26T03:54:46.304Z,9.457001
2023-03-26T03:55:46.293Z,9.457025
2023-03-26T03:56:46.282Z,9.457174
2023-03-26T03:57:46.300Z,9.457155
2023-03-26T03:58:46.279Z,9.457138
2023-03-26T03:59:47.850Z,9.457147
2023-03-26T04:00:46.243Z,9.457154
2023-03-26T04:01:46.227Z,9.457180
2023-03-26T04:02:46.371Z,9.457259
2023-03-26T04:03:46.923Z,9.457196
2023-03-26T04:04:46.199Z,9.457176
2023-03-26T04:05:46.207Z,9.457172
2023-03-26T04:06:46.185Z,9.457215
2023-03-26T04:07:46.163Z,9.457270
2023-03-26T04:08:46.215Z,9.457237
2023-03-26T04:09:46.145Z,9.457195
2023-03-26T04:10:46.133Z,9.457248
2023-03-26T04:11:46.151Z,9.457116
2023-03-26T04:12:46.109Z,9.457099
2023-03-26T04:13:46.130Z,9.457322
2023-03-26T04:14:46.101Z,9.457155
2023-03-26T04:15:46.126Z,9.457161
2023-03-26T04:16:46.082Z,9.457081
2023-03-26T04:17:46.092Z,9.457239
2023-03-26T04:18:46.138Z,9.457224
2023-03-26T04:19:46.038Z,9.457240
2023-03-26T04:20:46.026Z,9.457391
2023-03-26T04:21:46.015Z,9.457231
2023-03-26T04:22:46.009Z,9.457258
2023-03-26T04:23:46.017Z,9.457084
2023-03-26T04:24:45.989Z,9.457102
2023-03-26T04:25:45.984Z,9.457150
2023-03-26T04:26:45.958Z,9.457249
2023-03-26T04:27:45.945Z,9.457237
2023-03-26T04:28:45.971Z,9.457209
2023-03-26T04:29:45.968Z,9.457093
2023-03-26T04:30:45.946Z,9.456996
2023-03-26T04:31:45.940Z,9.457086
2023-03-26T04:32:45.937Z,9.457145
2023-03-26T04:34:12.282Z,9.457185
2023-03-26T04:34:45.874Z,9.457324
2023-03-26T04:35:45.915Z,9.456897
2023-03-26T04:36:45.853Z,9.456971
2023-03-26T04:37:45.862Z,9.456926
2023-03-26T04:38:45.852Z,9.457069
2023-03-26T04:39:45.830Z,9.457211
2023-03-26T04:40:45.803Z,9.457180
2023-03-26T04:41:45.797Z,9.457151
2023-03-26T04:42:45.796Z,9.457110
2023-03-26T04:43:45.806Z,9.457199
2023-03-26T04:44:45.770Z,9.457189
2023-03-26T04:45:45.762Z,9.457156
2023-03-26T04:46:45.780Z,9.457202
2023-03-26T04:47:45.769Z,9.457245
2023-03-26T04:48:45.746Z,9.457259
2023-03-26T04:49:45.713Z,9.457108
2023-03-26T04:50:45.693Z,9.457154
2023-03-26T04:51:45.689Z,9.457535
2023-03-26T04:52:45.733Z,9.457120
2023-03-26T04:53:45.710Z,9.457081
2023-03-26T04:54:45.644Z,9.457255
2023-03-26T04:55:45.632Z,9.457063
2023-03-26T04:56:45.684Z,9.457031
2023-03-26T04:57:45.621Z,9.457026
2023-03-26T04:58:45.633Z,9.456989
2023-03-26T04:59:45.612Z,9.457112
2023-03-26T05:00:45.599Z,9.456866
2023-03-26T05:01:45.604Z,9.456980
2023-03-26T05:02:45.637Z,9.457140
2023-03-26T05:03:45.686Z,9.457118
2023-03-26T05:04:45.843Z,9.456935
2023-03-26T05:05:45.529Z,9.456951
2023-03-26T05:06:45.522Z,9.457047
2023-03-26T05:07:45.505Z,9.457041
2023-03-26T05:08:45.564Z,9.456999
2023-03-26T05:09:45.497Z,9.457049
2023-03-26T05:10:45.487Z,9.456990
2023-03-26T05:11:45.472Z,9.457072
2023-03-26T05:12:45.452Z,9.456866
2023-03-26T05:13:45.464Z,9.456898
2023-03-26T05:14:45.429Z,9.456798
2023-03-26T05:15:45.420Z,9.456890
2023-03-26T05:16:45.440Z,9.457002
2023-03-26T05:17:45.400Z,9.457229
2023-03-26T05:18:45.381Z,9.457170
2023-03-26T05:19:45.379Z,9.457137
2023-03-26T05:20:45.356Z,9.457142
2023-03-26T05:21:45.381Z,9.456909
2023-03-26T05:22:45.332Z,9.456827
2023-03-26T05:23:45.349Z,9.456914
2023-03-26T05:24:45.322Z,9.456903
2023-03-26T05:25:45.296Z,9.456985
2023-03-26T05:26:45.292Z,9.457083
2023-03-26T05:27:45.278Z,9.457187
2023-03-26T05:28:45.289Z,9.457319
2023-03-26T05:29:45.270Z,9.457122
2023-03-26T05:30:45.244Z,9.457303
2023-03-26T05:31:45.235Z,9.457094
2023-03-26T05:32:45.380Z,9.456865
2023-03-26T05:33:45.281Z,9.456780
2023-03-26T05:34:45.208Z,9.457034
2023-03-26T05:35:45.252Z,9.457110
2023-03-26T05:36:45.191Z,9.457227
2023-03-26T05:37:45.170Z,9.457303
2023-03-26T05:38:45.189Z,9.457156
2023-03-26T05:39:45.151Z,9.457070
2023-03-26T05:40:45.143Z,9.456955
2023-03-26T05:41:45.126Z,9.456972
2023-03-26T05:42:45.119Z,9.456955
2023-03-26T05:43:45.166Z,9.457036
2023-03-26T05:44:45.107Z,9.456996
2023-03-26T05:45:45.125Z,9.457049
2023-03-26T05:46:45.068Z,9.457094
2023-03-26T05:47:45.096Z,9.457023
2023-03-26T05:48:45.071Z,9.457083
2023-03-26T05:49:45.036Z,9.456946
2023-03-26T05:50:45.039Z,9.456896
2023-03-26T05:51:45.017Z,9.456992
2023-03-26T05:52:45.004Z,9.457163
2023-03-26T05:53:45.011Z,9.457150
2023-03-26T05:54:44.988Z,9.457280
2023-03-26T05:55:45.012Z,9.457264
2023-03-26T05:56:45.021Z,9.457185
2023-03-26T05:57:44.960Z,9.457065
2023-03-26T05:58:44.992Z,9.457155
2023-03-26T05:59:44.923Z,9.457031
2023-03-26T06:00:44.914Z,9.456921
2023-03-26T06:01:44.937Z,9.456902
2023-03-26T06:02:44.938Z,9.457149
2023-03-26T06:03:45.214Z,9.457309
2023-03-26T06:04:44.971Z,9.457181
2023-03-26T06:05:44.886Z,9.457322
2023-03-26T06:06:44.898Z,9.457174
2023-03-26T06:07:44.851Z,9.457059
2023-03-26T06:08:44.867Z,9.457082
2023-03-26T06:09:44.832Z,9.457149
2023-03-26T06:10:44.819Z,9.457264
2023-03-26T06:11:44.862Z,9.457182
2023-03-26T06:12:44.814Z,9.457008
2023-03-26T06:13:44.776Z,9.456947
2023-03-26T06:14:44.768Z,9.457043
2023-03-26T06:15:44.801Z,9.457081
2023-03-26T06:16:44.778Z,9.457180
2023-03-26T06:17:44.796Z,9.457042
2023-03-26T06:18:44.783Z,9.456989
2023-03-26T06:19:44.718Z,9.457047
2023-03-26T06:20:44.712Z,9.457015
2023-03-26T06:21:44.701Z,9.457185
2023-03-26T06:22:44.681Z,9.457421
2023-03-26T06:23:44.712Z,9.457211
2023-03-26T06:24:44.664Z,9.457187
2023-03-26T06:25:44.647Z,9.457134
2023-03-26T06:26:44.637Z,9.457184
2023-03-26T06:27:44.626Z,9.457232
2023-03-26T06:28:44.664Z,9.457067
2023-03-26T06:29:44.617Z,9.457284
2023-03-26T06:30:44.605Z,9.457225
2023-03-26T06:31:44.678Z,9.457219
2023-03-26T06:32:44.588Z,9.457088
2023-03-26T06:33:44.593Z,9.457004
2023-03-26T06:34:44.557Z,9.457201
2023-03-26T06:35:44.569Z,9.456968
2023-03-26T06:36:44.537Z,9.456866
2023-03-26T06:37:44.558Z,9.457053
2023-03-26T06:38:44.546Z,9.457039
2023-03-26T06:39:44.502Z,9.457151
2023-03-26T06:40:44.503Z,9.457049
2023-03-26T06:41:44.499Z,9.457212
2023-03-26T06:43:08.175Z,9.457127
2023-03-26T06:43:45.499Z,9.457307
2023-03-26T06:44:44.447Z,9.457448
2023-03-26T06:45:44.459Z,9.457483
2023-03-26T06:46:44.446Z,9.457408
2023-03-26T06:47:44.478Z,9.457318
2023-03-26T06:48:44.445Z,9.457191
2023-03-26T06:49:45.396Z,9.457111
2023-03-26T06:50:45.390Z,9.457131
2023-03-26T06:51:44.376Z,9.457272
2023-03-26T06:52:44.371Z,9.457358
2023-03-26T06:53:44.393Z,9.457272
2023-03-26T06:54:44.350Z,9.457193
2023-03-26T06:55:44.339Z,9.457269
2023-03-26T06:56:44.382Z,9.457225
2023-03-26T06:57:44.322Z,9.457154
2023-03-26T06:58:44.308Z,9.456980
2023-03-26T06:59:44.318Z,9.456905
2023-03-26T07:00:44.315Z,9.457073
2023-03-26T07:01:45.879Z,9.457135
2023-03-26T07:02:44.306Z,9.457278
2023-03-26T07:03:44.276Z,9.457237
2023-03-26T07:04:44.265Z,9.457239
2023-03-26T07:05:44.238Z,9.457179
2023-03-26T07:06:44.232Z,9.457240
2023-03-26T07:07:46.294Z,9.457295
2023-03-26T07:08:44.223Z,9.457364
2023-03-26T07:09:44.214Z,9.457254
2023-03-26T07:10:44.195Z,9.457164
2023-03-26T07:11:44.182Z,9.457120
2023-03-26T07:12:44.175Z,9.457094
2023-03-26T07:13:44.157Z,9.457150
2023-03-26T07:14:44.178Z,9.457198
2023-03-26T07:15:44.159Z,9.457190
2023-03-26T07:16:44.194Z,9.457287
2023-03-26T07:17:44.152Z,9.457274
2023-03-26T07:18:44.103Z,9.457299
2023-03-26T07:19:44.128Z,9.457262
2023-03-26T07:20:44.090Z,9.457312
2023-03-26T07:21:44.090Z,9.457213
2023-03-26T07:22:44.070Z,9.457363
2023-03-26T07:23:44.064Z,9.457257
2023-03-26T07:24:44.140Z,9.457440
2023-03-26T07:25:44.041Z,9.457463
2023-03-26T07:26:44.085Z,9.457358
2023-03-26T07:27:44.024Z,9.457364
2023-03-26T07:28:44.013Z,9.457400
2023-03-26T07:29:45.029Z,9.457421
2023-03-26T07:30:44.009Z,9.457341
2023-03-26T07:31:43.992Z,9.457389
2023-03-26T07:32:44.042Z,9.457520
2023-03-26T07:33:43.961Z,9.457270
2023-03-26T07:34:43.982Z,9.457180
2023-03-26T07:35:44.042Z,9.457150
2023-03-26T07:36:43.926Z,9.457094
2023-03-26T07:37:44.097Z,9.457289
2023-03-26T07:38:43.927Z,9.457224
2023-03-26T07:39:43.933Z,9.457287
2023-03-26T07:40:43.934Z,9.457143
2023-03-26T07:41:43.887Z,9.457335
2023-03-26T07:42:43.877Z,9.457372
2023-03-26T07:43:44.000Z,9.457708
2023-03-26T07:44:43.870Z,9.457328
2023-03-26T07:45:43.914Z,9.457274
2023-03-26T07:46:43.821Z,9.457288
2023-03-26T07:47:43.827Z,9.457230
2023-03-26T07:48:43.808Z,9.457224
2023-03-26T07:49:43.826Z,9.457196
2023-03-26T07:50:43.806Z,9.457091
2023-03-26T07:51:43.781Z,9.457300
2023-03-26T07:52:43.775Z,9.457371
2023-03-26T07:53:43.773Z,9.457217
2023-03-26T07:54:43.798Z,9.457101
2023-03-26T07:55:43.755Z,9.457194
2023-03-26T07:56:43.836Z,9.457186
2023-03-26T07:57:43.757Z,9.457219
2023-03-26T07:58:43.896Z,9.457125
2023-03-26T07:59:43.758Z,9.457235
2023-03-26T08:00:43.757Z,9.457238
2023-03-26T08:01:43.710Z,9.457211
2023-03-26T08:02:43.778Z,9.457179
2023-03-26T08:03:43.720Z,9.457228
2023-03-26T08:04:43.832Z,9.457103
2023-03-26T08:05:43.661Z,9.457234
2023-03-26T08:06:43.653Z,9.457238
2023-03-26T08:07:43.653Z,9.457325
2023-03-26T08:08:43.628Z,9.457253
2023-03-26T08:09:43.632Z,9.457195
2023-03-26T08:10:43.603Z,9.457178
2023-03-26T08:11:43.614Z,9.457339
2023-03-26T08:12:43.897Z,9.457276
2023-03-26T08:13:43.586Z,9.457228
2023-03-26T08:14:43.598Z,9.457253
2023-03-26T08:15:43.603Z,9.457250
2023-03-26T08:16:43.547Z,9.457196
2023-03-26T08:17:43.585Z,9.457124
2023-03-26T08:18:43.528Z,9.457140
2023-03-26T08:19:43.524Z,9.457069
2023-03-26T08:20:43.536Z,9.457148
2023-03-26T08:21:43.494Z,9.457316
2023-03-26T08:22:43.511Z,9.457262
2023-03-26T08:23:50.330Z,9.457137
2023-03-26T08:24:44.591Z,9.457325
2023-03-26T08:25:43.517Z,9.457288
2023-03-26T08:26:43.449Z,9.457280
2023-03-26T08:27:43.457Z,9.457375
2023-03-26T08:28:43.426Z,9.457265
2023-03-26T08:29:44.433Z,9.457211
2023-03-26T08:30:43.431Z,9.457117
2023-03-26T08:31:43.396Z,9.457097
2023-03-26T08:32:43.402Z,9.457113
2023-03-26T08:33:43.394Z,9.457261
2023-03-26T08:34:43.391Z,9.457292
2023-03-26T08:35:43.388Z,9.457323
2023-03-26T08:36:43.343Z,9.457141
2023-03-26T08:37:43.344Z,9.457026
2023-03-26T08:38:45.048Z,9.457108
2023-03-26T08:39:43.347Z,9.457131
2023-03-26T08:40:43.324Z,9.457168
2023-03-26T08:41:43.324Z,9.457202
2023-03-26T08:42:43.295Z,9.457276
2023-03-26T08:43:43.283Z,9.457334
2023-03-26T08:44:43.294Z,9.457310
2023-03-26T08:45:43.297Z,9.457224
2023-03-26T08:46:43.291Z,9.457231
2023-03-26T08:47:43.280Z,9.457298
2023-03-26T08:48:43.327Z,9.457267
2023-03-26T08:49:43.275Z,9.457207
2023-03-26T08:50:43.213Z,9.457232
2023-03-26T08:51:43.230Z,9.457258
2023-03-26T08:52:43.201Z,9.457261
2023-03-26T08:53:43.185Z,9.457236
2023-03-26T08:54:43.197Z,9.457302
2023-03-26T08:55:43.171Z,9.457267
2023-03-26T08:56:43.175Z,9.457245
2023-03-26T08:57:43.144Z,9.457322
2023-03-26T08:58:43.131Z,9.457241
2023-03-26T08:59:43.195Z,9.457216
2023-03-26T09:00:43.136Z,9.457282
2023-03-26T09:01:43.213Z,9.457192
2023-03-26T09:02:43.135Z,9.457108
2023-03-26T09:03:43.122Z,9.457267
2023-03-26T09:04:43.098Z,9.457292
2023-03-26T09:05:43.078Z,9.457227
2023-03-26T09:06:43.060Z,9.457323
2023-03-26T09:07:43.050Z,9.457125
2023-03-26T09:08:53.693Z,9.457139
2023-03-26T09:09:44.054Z,9.457211
2023-03-26T09:10:43.028Z,9.457292
2023-03-26T09:11:43.016Z,9.457270
2023-03-26T09:12:43.004Z,9.457240
2023-03-26T09:13:42.997Z,9.457286
2023-03-26T09:14:43.003Z,9.457280
2023-03-26T09:15:42.974Z,9.457221
2023-03-26T09:16:43.090Z,9.457245
2023-03-26T09:17:42.978Z,9.457215
2023-03-26T09:18:43.932Z,9.457298
2023-03-26T09:19:42.968Z,9.457350
2023-03-26T09:20:42.931Z,9.457240
2023-03-26T09:21:42.914Z,9.457324
2023-03-26T09:22:42.904Z,9.457325
2023-03-26T09:23:42.888Z,9.457373
2023-03-26T09:24:42.894Z,9.457417
2023-03-26T09:25:42.901Z,9.457323
2023-03-26T09:26:42.860Z,9.457278
2023-03-26T09:27:42.859Z,9.457207
2023-03-26T09:28:42.860Z,9.457268
2023-03-26T09:29:42.887Z,9.457220
2023-03-26T09:30:42.830Z,9.457268
2023-03-26T09:31:42.891Z,9.457084
2023-03-26T09:32:42.844Z,9.457185
2023-03-26T09:33:42.806Z,9.457238
2023-03-26T09:34:42.804Z,9.457288
2023-03-26T09:35:42.800Z,9.457167
2023-03-26T09:36:42.770Z,9.457070
2023-03-26T09:37:56.211Z,9.457041
2023-03-26T09:38:43.762Z,9.457185
2023-03-26T09:39:42.750Z,9.457170
2023-03-26T09:40:42.728Z,9.457240
2023-03-26T09:41:42.730Z,9.457293
2023-03-26T09:42:42.703Z,9.457173
2023-03-26T09:43:42.729Z,9.457132
2023-03-26T09:44:42.712Z,9.457153
2023-03-26T09:45:42.699Z,9.457273
2023-03-26T09:46:42.893Z,9.457239
2023-03-26T09:47:42.711Z,9.457150
2023-03-26T09:48:42.664Z,9.457254
2023-03-26T09:49:42.811Z,9.457167
2023-03-26T09:50:42.624Z,9.457228
2023-03-26T09:51:42.620Z,9.457273
2023-03-26T09:52:42.613Z,9.457209
2023-03-26T09:53:42.592Z,9.457202
2023-03-26T09:54:42.623Z,9.457235
2023-03-26T09:55:42.579Z,9.457211
2023-03-26T09:56:42.586Z,9.457172
2023-03-26T09:57:42.608Z,9.457227
2023-03-26T09:58:42.552Z,9.457254
2023-03-26T09:59:42.544Z,9.457285
2023-03-26T10:00:42.598Z,9.457237
2023-03-26T10:01:42.539Z,9.457260
2023-03-26T10:02:45.987Z,9.457237
2023-03-26T10:03:43.495Z,9.457195
2023-03-26T10:04:42.521Z,9.457348
2023-03-26T10:05:42.473Z,9.457370
2023-03-26T10:06:42.473Z,9.457335
2023-03-26T10:07:42.441Z,9.457367
2023-03-26T10:08:42.436Z,9.457293
2023-03-26T10:09:42.426Z,9.457189
2023-03-26T10:10:42.431Z,9.457216
2023-03-26T10:11:42.420Z,9.457224
2023-03-26T10:12:42.407Z,9.457112
2023-03-26T10:13:42.390Z,9.457211
2023-03-26T10:14:42.425Z,9.457257
2023-03-26T10:15:42.424Z,9.457174
2023-03-26T10:16:42.446Z,9.457231
2023-03-26T10:17:42.413Z,9.457244
2023-03-26T10:18:42.337Z,9.457262
2023-03-26T10:19:42.333Z,9.457182
2023-03-26T10:20:42.385Z,9.457181
2023-03-26T10:21:42.331Z,9.457216
2023-03-26T10:22:42.297Z,9.457246
2023-03-26T10:23:42.284Z,9.457236
2023-03-26T10:24:42.287Z,9.457220
2023-03-26T10:25:42.300Z,9.457253
2023-03-26T10:26:42.265Z,9.457231
2023-03-26T10:27:43.278Z,9.457200
2023-03-26T10:28:42.274Z,9.457199
2023-03-26T10:29:42.235Z,9.457181
2023-03-26T10:30:42.248Z,9.457284
2023-03-26T10:31:42.202Z,9.457209
2023-03-26T10:32:42.203Z,9.457283
2023-03-26T10:53:56.538Z,9.457301
2023-03-26T10:54:56.524Z,9.457301
2023-03-26T10:55:56.523Z,9.457301
2023-03-26T10:56:56.596Z,9.456995
2023-03-26T10:57:56.497Z,9.456698
2023-03-26T10:58:56.517Z,9.456472
2023-03-26T10:59:56.478Z,9.457253
2023-03-26T11:00:56.663Z,9.457609
2023-03-26T11:01:56.475Z,9.457334
2023-03-26T11:02:56.459Z,9.457390
2023-03-26T11:03:56.458Z,9.457437
2023-03-26T11:04:56.435Z,9.457369
2023-03-26T11:05:56.494Z,9.457577
2023-03-26T11:06:56.401Z,9.457281
2023-03-26T11:07:56.380Z,9.457240
2023-03-26T11:08:56.406Z,9.457050
2023-03-26T11:09:56.367Z,9.457062
2023-03-26T11:10:56.535Z,9.457058
2023-03-26T11:11:56.354Z,9.457211
2023-03-26T11:12:56.338Z,9.457170
2023-03-26T11:13:56.338Z,9.457076
2023-03-26T11:14:56.325Z,9.457152
2023-03-26T11:15:56.361Z,9.457244
2023-03-26T11:16:56.300Z,9.457155
2023-03-26T11:17:56.354Z,9.457107
2023-03-26T11:18:56.283Z,9.457431
2023-03-26T11:19:56.275Z,9.457299
2023-03-26T11:20:56.633Z,9.457244
2023-03-26T11:21:57.245Z,9.457232
2023-03-26T11:22:56.232Z,9.457232
2023-03-26T11:24:04.470Z,9.457353
2023-03-26T11:24:57.220Z,9.457291
2023-03-26T11:25:56.225Z,9.457062
2023-03-26T11:26:56.200Z,9.457174
2023-03-26T11:27:56.200Z,9.457292
2023-03-26T11:29:03.680Z,9.457071
2023-03-26T11:29:57.167Z,9.457100
2023-03-26T11:30:56.476Z,9.457179
2023-03-26T11:31:56.152Z,9.457228
2023-03-26T11:32:56.161Z,9.457031
2023-03-26T11:33:56.130Z,9.457034
2023-03-26T11:34:56.132Z,9.457339
2023-03-26T11:35:56.181Z,9.457500
2023-03-26T11:36:56.109Z,9.457475
2023-03-26T11:37:56.094Z,9.457289
2023-03-26T11:38:56.085Z,9.457147
2023-03-26T11:39:56.665Z,9.457257
2023-03-26T11:40:57.391Z,9.457265
2023-03-26T11:41:56.060Z,9.458102
2023-03-26T11:42:56.045Z,9.458051
2023-03-26T11:43:56.042Z,9.457559
2023-03-26T11:44:56.032Z,9.457367
2023-03-26T11:45:56.030Z,9.457457
2023-03-26T11:46:56.084Z,9.457212
2023-03-26T11:47:56.044Z,9.457056
2023-03-26T11:48:55.991Z,9.457169
2023-03-26T11:49:55.993Z,9.457178
2023-03-26T11:50:56.230Z,9.457248
2023-03-26T11:51:55.988Z,9.457325
2023-03-26T11:52:55.943Z,9.457397
2023-03-26T11:53:55.946Z,9.457198
2023-03-26T11:54:55.933Z,9.457008
2023-03-26T11:55:56.010Z,9.456761
2023-03-26T11:57:05.968Z,9.457180
2023-03-26T11:57:57.819Z,9.457370
2023-03-26T11:58:55.885Z,9.457086
2023-03-26T11:59:57.697Z,9.457085
2023-03-26T12:00:57.086Z,9.457376
2023-03-26T12:01:55.913Z,9.457153
2023-03-26T12:02:55.877Z,9.457046
2023-03-26T12:03:55.842Z,9.457227
2023-03-26T12:04:55.885Z,9.457286